Time;durP1;ratioP1;P1;durP2;ratioP2;P2;SDS_P1;SDS_P2;PMS_P1;PMS_P2;Temp;Humidity;BMP_temperature;BMP_pressure;BME280_temperature;BME280_humidity;BME280_pressure;Samples;Min_cycle;Max_cycle;Signal;HPM_P1;HPM_P2
2022/04/15 00:00:40;;;;;;;10.30;5.70;;;7.40;99.90;;;;;;5042295;28;20558;-77
2022/04/15 00:03:11;;;;;;;7.80;4.93;;;7.40;99.90;;;;;;5041618;28;20405;-83
2022/04/15 00:06:10;;;;;;;7.68;5.30;;;7.50;99.90;;;;;;5089574;28;20050;-77
2022/04/15 00:08:50;;;;;;;11.85;6.10;;;7.40;99.90;;;;;;5061503;28;20052;-77
2022/04/15 00:11:19;;;;;;;7.20;5.28;;;7.40;99.90;;;;;;5073179;28;20048;-77
2022/04/15 00:14:18;;;;;;;7.63;5.38;;;7.40;99.90;;;;;;5075841;28;20055;-77
2022/04/15 00:16:45;;;;;;;7.82;5.85;;;7.40;99.90;;;;;;5072897;28;20496;-77
2022/04/15 00:19:16;;;;;;;10.57;6.20;;;7.30;99.90;;;;;;5073067;28;20052;-78
2022/04/15 00:21:59;;;;;;;10.38;5.80;;;7.40;99.90;;;;;;5059948;28;20051;-77
2022/04/15 00:24:51;;;;;;;9.68;5.22;;;7.30;99.90;;;;;;5074233;28;20067;-77
2022/04/15 00:27:25;;;;;;;8.75;6.25;;;7.30;99.90;;;;;;5071951;28;20185;-77
2022/04/15 00:29:53;;;;;;;7.28;5.50;;;7.30;99.90;;;;;;5092491;28;20134;-77
2022/04/15 00:32:30;;;;;;;7.97;5.43;;;7.30;99.90;;;;;;5112210;27;20126;-77
2022/04/15 00:35:21;;;;;;;10.00;5.70;;;7.30;99.90;;;;;;5091860;27;20099;-77
2022/04/15 00:37:52;;;;;;;11.88;5.82;;;7.30;99.90;;;;;;5119278;27;20042;-77
2022/04/15 00:40:26;;;;;;;7.93;6.18;;;7.40;99.90;;;;;;5117920;27;20066;-77
2022/04/15 00:43:04;;;;;;;7.95;5.60;;;7.50;99.90;;;;;;5068008;27;20122;-77
2022/04/15 00:46:11;;;;;;;9.40;6.00;;;7.40;99.90;;;;;;5121423;27;20556;-77
2022/04/15 00:48:51;;;;;;;9.23;6.28;;;7.50;99.90;;;;;;5098954;27;20100;-77
2022/04/15 00:51:20;;;;;;;9.80;6.43;;;7.50;99.90;;;;;;5103024;27;20482;-77
2022/04/15 00:53:49;;;;;;;8.30;6.03;;;7.60;99.90;;;;;;5133814;27;20063;-77
2022/04/15 00:56:36;;;;;;;8.57;6.20;;;7.60;99.90;;;;;;5120272;27;20054;-77
2022/04/15 00:59:08;;;;;;;;;;;7.60;99.90;;;;;;5119109;27;20051;-77
2022/04/15 01:01:46;;;;;;;7.63;5.68;;;7.70;99.90;;;;;;5132254;27;19923;-77
2022/04/15 01:04:34;;;;;;;9.95;5.95;;;7.70;99.90;;;;;;5119476;27;20061;-77
2022/04/15 01:07:06;;;;;;;10.50;6.18;;;7.90;99.90;;;;;;5083163;27;20081;-77
2022/04/15 01:09:44;;;;;;;8.52;6.38;;;7.80;99.90;;;;;;5135770;27;20050;-77
2022/04/15 01:12:14;;;;;;;10.80;7.05;;;7.80;99.90;;;;;;5099254;27;20059;-77
2022/04/15 01:14:54;;;;;;;10.40;6.20;;;7.80;99.90;;;;;;5102735;27;20070;-77
2022/04/15 01:17:25;;;;;;;10.20;6.00;;;7.80;99.90;;;;;;5118081;27;20051;-77
2022/04/15 01:20:13;;;;;;;9.20;5.95;;;7.80;99.90;;;;;;5103277;27;20138;-77
2022/04/15 01:22:48;;;;;;;8.85;5.60;;;7.90;99.90;;;;;;5134589;27;20058;-77
2022/04/15 01:25:34;;;;;;;8.27;6.28;;;7.90;99.90;;;;;;5114881;27;20074;-84
2022/04/15 01:28:20;;;;;;;10.73;6.30;;;7.90;99.90;;;;;;5086031;27;20062;-77
2022/04/15 01:30:57;;;;;;;8.80;6.30;;;8.00;99.90;;;;;;5087449;27;20039;-77
2022/04/15 01:33:34;;;;;;;9.98;6.07;;;8.00;99.90;;;;;;5118712;27;20051;-77
2022/04/15 01:36:27;;;;;;;9.48;6.05;;;8.00;99.90;;;;;;5087026;27;20122;-78
2022/04/15 01:39:10;;;;;;;7.10;6.05;;;8.00;99.90;;;;;;5117012;27;20054;-77
2022/04/15 01:41:48;;;;;;;10.07;5.97;;;8.00;99.90;;;;;;5115884;27;20127;-77
2022/04/15 01:44:42;;;;;;;10.63;5.78;;;8.10;99.90;;;;;;5099245;27;20079;-77
2022/04/15 01:47:18;;;;;;;8.70;5.60;;;8.10;99.90;;;;;;5113149;28;20056;-77
2022/04/15 01:49:51;;;;;;;9.65;6.07;;;8.10;99.90;;;;;;5081615;28;20104;-77
2022/04/15 01:52:29;;;;;;;12.43;6.03;;;8.20;99.90;;;;;;5112965;28;20113;-77
2022/04/15 01:55:11;;;;;;;10.98;6.00;;;8.20;99.90;;;;;;5081116;28;20142;-77
2022/04/15 01:57:53;;;;;;;9.07;5.93;;;8.30;99.90;;;;;;5112672;28;20043;-78
2022/04/15 02:00:31;;;;;;;10.30;6.00;;;8.20;99.90;;;;;;5113325;28;20054;-77
2022/04/15 02:03:04;;;;;;;11.82;6.00;;;8.30;99.90;;;;;;5113680;28;20048;-78
2022/04/15 02:05:42;;;;;;;10.20;6.15;;;8.30;99.90;;;;;;5095166;28;20494;-77
2022/04/15 02:08:28;;;;;;;10.95;6.25;;;8.20;99.90;;;;;;5047702;28;20091;-77
2022/04/15 02:11:07;;;;;;;9.65;5.70;;;8.30;99.90;;;;;;5112789;28;20047;-77
2022/04/15 02:13:39;;;;;;;10.07;6.07;;;8.30;99.90;;;;;;5095757;28;20054;-77
2022/04/15 02:16:20;;;;;;;11.50;6.25;;;8.30;99.90;;;;;;5097928;28;20055;-77
2022/04/15 02:18:54;;;;;;;8.48;5.93;;;8.30;99.90;;;;;;5096795;28;20058;-77
2022/04/15 02:21:43;;;;;;;10.60;5.80;;;8.30;99.90;;;;;;5112747;28;20039;-77
2022/04/15 02:24:14;;;;;;;11.85;6.18;;;8.30;99.90;;;;;;5114038;28;20054;-76
2022/04/15 02:26:42;;;;;;;11.57;6.20;;;8.30;99.90;;;;;;5088755;28;20047;-77
2022/04/15 02:29:20;;;;;;;9.68;6.05;;;8.30;99.90;;;;;;5112457;28;20055;-78
2022/04/15 02:31:51;;;;;;;11.48;6.20;;;8.40;99.90;;;;;;5112554;28;20152;-77
2022/04/15 02:34:28;;;;;;;11.68;6.40;;;8.40;99.90;;;;;;5113323;28;20047;-77
2022/04/15 02:37:01;;;;;;;11.35;6.50;;;8.40;99.90;;;;;;5112073;28;20048;-77
2022/04/15 02:39:33;;;;;;;10.15;5.93;;;8.40;99.90;;;;;;5080684;28;20050;-77
2022/04/15 02:42:02;;;;;;;12.77;6.43;;;8.40;99.90;;;;;;5111022;28;20059;-77
2022/04/15 02:44:36;;;;;;;8.75;5.95;;;8.40;99.90;;;;;;5113557;28;20104;-77
2022/04/15 02:47:20;;;;;;;11.00;6.22;;;8.40;99.90;;;;;;5082596;28;20051;-77
2022/04/15 02:49:57;;;;;;;9.77;6.20;;;8.40;99.90;;;;;;5112083;28;20044;-77
2022/04/15 02:52:24;;;;;;;10.23;6.30;;;8.40;99.90;;;;;;5078299;28;20150;-77
2022/04/15 02:54:55;;;;;;;10.38;6.00;;;8.40;99.90;;;;;;5107165;28;20063;-77
2022/04/15 02:57:57;;;;;;;10.80;6.43;;;8.40;99.90;;;;;;5111591;28;20074;-77
2022/04/15 03:00:58;;;;;;;12.48;6.90;;;8.50;99.90;;;;;;5070382;28;20517;-77
2022/04/15 03:03:43;;;;;;;10.85;6.53;;;8.50;99.90;;;;;;5053896;28;20059;-77
2022/04/15 03:06:26;;;;;;;9.27;6.70;;;8.40;99.90;;;;;;5050648;28;20143;-77
2022/04/15 03:09:14;;;;;;;10.55;6.53;;;8.50;99.90;;;;;;5056559;28;20045;-77
2022/04/15 03:11:49;;;;;;;8.70;6.22;;;8.50;99.90;;;;;;5053502;28;20054;-76
2022/04/15 03:14:40;;;;;;;11.80;6.63;;;8.40;99.90;;;;;;5053050;28;20056;-77
2022/04/15 03:17:19;;;;;;;10.75;6.45;;;8.50;99.90;;;;;;5068826;28;20083;-77
2022/04/15 03:20:02;;;;;;;9.63;6.40;;;8.60;99.90;;;;;;5038616;28;20052;-77
2022/04/15 03:22:48;;;;;;;8.68;6.22;;;8.40;99.90;;;;;;5054678;28;20149;-77
2022/04/15 03:25:36;;;;;;;10.50;5.80;;;8.50;99.90;;;;;;5038455;28;20178;-77
2022/04/15 03:28:07;;;;;;;10.50;6.45;;;8.50;99.90;;;;;;5054197;28;20056;-77
2022/04/15 03:31:17;;;;;;;10.43;6.47;;;8.50;99.90;;;;;;5054029;28;20059;-77
2022/04/15 03:34:00;;;;;;;10.88;6.07;;;8.50;99.90;;;;;;5054267;28;20049;-77
2022/04/15 03:36:28;;;;;;;10.75;5.95;;;8.50;99.90;;;;;;5046192;28;20049;-77
2022/04/15 03:39:23;;;;;;;9.43;6.38;;;8.50;99.90;;;;;;5056048;28;20060;-77
2022/04/15 03:41:55;;;;;;;8.60;6.15;;;8.50;99.90;;;;;;5052969;28;20056;-76
2022/04/15 03:44:39;;;;;;;9.13;5.85;;;8.60;99.90;;;;;;5053416;28;20040;-77
2022/04/15 03:47:16;;;;;;;7.05;5.30;;;8.60;99.90;;;;;;5084259;28;20051;-77
2022/04/15 03:49:48;;;;;;;13.70;5.93;;;8.60;99.90;;;;;;5089933;28;20048;-77
2022/04/15 03:52:18;;;;;;;12.25;6.28;;;8.70;99.90;;;;;;5037563;28;20180;-77
2022/04/15 03:55:04;;;;;;;11.80;8.68;;;8.60;99.90;;;;;;5061848;28;20082;-77
2022/04/15 03:57:42;;;;;;;15.57;10.93;;;8.60;99.90;;;;;;5071317;28;20088;-77
2022/04/15 04:00:22;;;;;;;14.73;12.32;;;8.60;99.90;;;;;;5089864;28;20140;-77
2022/04/15 04:02:58;;;;;;;15.57;11.00;;;8.60;99.90;;;;;;5088383;28;20059;-77
2022/04/15 04:05:43;;;;;;;13.90;11.20;;;8.60;99.90;;;;;;5073754;28;20048;-77
2022/04/15 04:08:25;;;;;;;15.02;12.00;;;8.60;99.90;;;;;;5090355;28;20063;-77
2022/04/15 04:11:06;;;;;;;13.70;11.15;;;8.60;99.90;;;;;;5078828;28;20385;-77
2022/04/15 04:13:41;;;;;;;12.77;10.25;;;8.60;99.90;;;;;;5114688;28;20063;-77
2022/04/15 04:16:32;;;;;;;11.75;10.50;;;8.50;99.90;;;;;;5108960;28;20534;-78
2022/04/15 04:19:23;;;;;;;10.95;8.18;;;8.50;99.90;;;;;;5081933;28;20172;-77
2022/04/15 04:21:53;;;;;;;8.63;7.63;;;8.60;99.90;;;;;;5083314;28;20522;-77
2022/04/15 04:24:28;;;;;;;9.20;7.22;;;8.50;99.90;;;;;;5079912;28;20170;-77
2022/04/15 04:27:27;;;;;;;7.97;6.75;;;8.50;99.90;;;;;;5114258;28;20245;-77
2022/04/15 04:30:00;;;;;;;7.65;6.60;;;8.40;99.90;;;;;;5113625;28;20051;-79
2022/04/15 04:32:37;;;;;;;6.85;6.15;;;8.40;99.90;;;;;;5114145;28;20101;-77
2022/04/15 04:35:23;;;;;;;7.75;6.65;;;8.40;99.90;;;;;;5098482;28;20074;-77
2022/04/15 04:37:54;;;;;;;7.13;5.90;;;8.40;99.90;;;;;;5113418;28;20047;-77
2022/04/15 04:40:30;;;;;;;6.90;5.80;;;8.40;99.90;;;;;;5135868;27;20062;-78
2022/04/15 04:43:03;;;;;;;6.20;5.60;;;8.40;99.90;;;;;;5088633;27;20142;-78
2022/04/15 04:45:33;;;;;;;5.88;5.28;;;8.40;99.90;;;;;;5083971;27;20082;-79
2022/04/15 04:48:08;;;;;;;6.43;5.90;;;8.40;99.90;;;;;;5119727;27;20140;-78
2022/04/15 04:50:35;;;;;;;6.70;5.18;;;8.40;99.90;;;;;;5101658;27;20467;-78
2022/04/15 04:53:00;;;;;;;6.75;5.50;;;8.40;99.90;;;;;;5118372;27;20043;-77
2022/04/15 04:55:26;;;;;;;9.52;5.53;;;8.30;99.90;;;;;;5101575;27;20119;-79
2022/04/15 04:57:51;;;;;;;7.80;5.13;;;8.30;99.90;;;;;;5118038;27;20045;-81
2022/04/15 05:00:17;;;;;;;12.55;5.30;;;8.30;99.90;;;;;;5136662;27;20130;-77
2022/04/15 05:02:43;;;;;;;7.40;5.35;;;8.30;99.90;;;;;;5101364;27;20035;-77
2022/04/15 05:05:09;;;;;;;5.43;4.90;;;8.30;99.90;;;;;;5135989;27;20047;-77
2022/04/15 05:07:36;;;;;;;5.97;4.82;;;8.30;99.90;;;;;;5101322;27;20091;-79
2022/04/15 05:10:03;;;;;;;6.97;5.38;;;8.40;99.90;;;;;;5084110;27;20043;-79
2022/04/15 05:12:32;;;;;;;5.35;4.85;;;8.30;99.90;;;;;;5101213;27;20051;-80
2022/04/15 05:15:23;;;;;;;6.63;4.70;;;8.30;99.90;;;;;;5134719;27;20054;-80
2022/04/15 05:17:49;;;;;;;5.03;4.57;;;8.30;99.90;;;;;;5134912;27;20399;-76
2022/04/15 05:20:15;;;;;;;4.97;3.88;;;8.30;99.90;;;;;;5082899;27;20495;-78
2022/04/15 05:22:44;;;;;;;5.47;3.58;;;8.30;99.90;;;;;;5084014;27;20043;-78
2022/04/15 05:25:20;;;;;;;4.50;3.70;;;8.30;99.90;;;;;;5070692;27;20051;-78
2022/04/15 05:28:13;;;;;;;5.90;3.58;;;8.20;99.90;;;;;;5135712;27;20099;-77
2022/04/15 05:30:43;;;;;;;4.05;3.45;;;8.20;99.90;;;;;;5116855;27;20090;-78
2022/04/15 05:33:19;;;;;;;3.33;3.03;;;8.20;99.90;;;;;;5118976;27;20043;-77
2022/04/15 05:35:46;;;;;;;3.72;2.58;;;8.20;99.90;;;;;;5100651;27;20038;-78
2022/04/15 05:38:18;;;;;;;3.22;2.92;;;8.10;99.90;;;;;;5118037;27;20039;-78
2022/04/15 05:40:46;;;;;;;4.70;2.92;;;8.10;99.90;;;;;;5117925;27;20051;-78
2022/04/15 05:43:12;;;;;;;3.53;2.70;;;8.10;99.90;;;;;;5100111;27;20120;-78
2022/04/15 05:45:38;;;;;;;4.05;2.50;;;8.10;99.90;;;;;;5099700;27;20054;-78
2022/04/15 05:48:04;;;;;;;3.90;2.70;;;8.00;99.90;;;;;;5099985;27;20505;-78
2022/04/15 05:50:30;;;;;;;3.03;2.70;;;8.00;99.90;;;;;;5067167;27;20395;-78
2022/04/15 05:53:03;;;;;;;5.45;2.63;;;8.00;99.90;;;;;;5135635;27;20043;-79
2022/04/15 05:55:29;;;;;;;2.90;2.70;;;8.00;99.90;;;;;;5101594;27;20050;-78
2022/04/15 05:57:57;;;;;;;3.05;2.75;;;8.00;99.90;;;;;;5083458;27;20043;-78
2022/04/15 06:00:44;;;;;;;4.47;3.00;;;8.00;99.90;;;;;;5117888;27;20050;-78
2022/04/15 06:03:12;;;;;;;3.55;2.97;;;8.10;99.90;;;;;;5065985;27;20141;-78
2022/04/15 06:05:45;;;;;;;3.92;3.05;;;8.10;99.90;;;;;;5135419;27;20046;-78
2022/04/15 06:08:24;;;;;;;4.00;3.00;;;8.00;99.90;;;;;;5083362;27;20134;-78
2022/04/15 06:10:49;;;;;;;5.13;3.00;;;8.00;99.90;;;;;;5117659;27;20058;-78
2022/04/15 06:13:31;;;;;;;4.47;3.05;;;8.10;99.90;;;;;;5077077;28;20044;-78
2022/04/15 06:16:15;;;;;;;5.85;3.30;;;8.10;99.90;;;;;;5060685;28;20398;-78
2022/04/15 06:18:45;;;;;;;5.03;3.60;;;8.10;99.90;;;;;;5059708;28;20594;-78
2022/04/15 06:21:28;;;;;;;3.65;3.35;;;8.10;99.90;;;;;;5073591;28;20096;-78
2022/04/15 06:23:57;;;;;;;5.65;3.95;;;8.10;99.90;;;;;;5075272;28;20110;-78
2022/04/15 06:26:29;;;;;;;7.07;4.10;;;8.10;99.90;;;;;;5091266;28;20044;-78
2022/04/15 06:29:01;;;;;;;5.05;4.32;;;8.10;99.90;;;;;;5074862;28;20056;-78
2022/04/15 06:31:47;;;;;;;4.18;3.75;;;8.10;99.90;;;;;;5060388;28;20144;-78
2022/04/15 06:34:21;;;;;;;8.35;4.60;;;8.20;99.90;;;;;;5042667;28;20059;-78
2022/04/15 06:36:50;;;;;;;6.03;4.20;;;8.10;99.90;;;;;;5090330;28;20056;-79
2022/04/15 06:39:16;;;;;;;5.32;4.28;;;8.10;99.90;;;;;;5074072;28;20083;-78
2022/04/15 06:41:44;;;;;;;5.88;4.05;;;8.10;99.90;;;;;;5074471;28;20486;-78
2022/04/15 06:44:13;;;;;;;;;;;8.10;99.90;;;;;;5073607;27;20058;-78
2022/04/15 06:46:47;;;;;;;5.50;3.80;;;8.10;99.90;;;;;;5099933;27;19972;-78
2022/04/15 06:49:47;;;;;;;5.05;4.13;;;8.20;99.90;;;;;;5116062;27;20087;-78
2022/04/15 06:52:17;;;;;;;7.78;4.43;;;8.20;99.90;;;;;;5115890;27;20046;-80
2022/04/15 06:54:47;;;;;;;5.75;5.10;;;8.20;99.90;;;;;;5116553;27;20146;-77
2022/04/15 06:57:20;;;;;;;7.13;5.13;;;8.20;99.90;;;;;;5097909;27;20491;-79
2022/04/15 06:59:52;;;;;;;6.85;5.07;;;8.20;99.90;;;;;;5097072;27;20047;-80
2022/04/15 07:02:36;;;;;;;6.13;4.95;;;8.30;99.90;;;;;;5100059;27;20126;-78
2022/04/15 07:05:13;;;;;;;6.10;5.50;;;8.30;99.90;;;;;;5116240;27;20433;-79
2022/04/15 07:07:43;;;;;;;7.53;5.57;;;8.30;99.90;;;;;;5117610;27;20047;-78
2022/04/15 07:10:18;;;;;;;9.35;6.93;;;8.30;99.90;;;;;;5132876;27;20063;-78
2022/04/15 07:12:46;;;;;;;8.63;6.88;;;8.40;99.90;;;;;;5132069;27;20491;-78
2022/04/15 07:15:23;;;;;;;7.93;6.88;;;8.40;99.90;;;;;;5099265;27;20078;-78
2022/04/15 07:17:55;;;;;;;8.73;7.20;;;8.40;99.90;;;;;;5117243;27;20530;-78
2022/04/15 07:20:38;;;;;;;8.82;7.40;;;8.50;99.90;;;;;;5117720;27;20050;-78
2022/04/15 07:23:12;;;;;;;10.90;7.65;;;8.40;99.90;;;;;;5085352;27;20134;-78
2022/04/15 07:25:45;;;;;;;11.20;8.88;;;8.50;99.90;;;;;;5082357;27;20047;-78
2022/04/15 07:28:20;;;;;;;12.60;8.27;;;8.50;99.90;;;;;;5083600;27;20051;-78
2022/04/15 07:30:53;;;;;;;9.77;8.40;;;8.50;99.90;;;;;;5116076;27;20055;-78
2022/04/15 07:33:19;;;;;;;15.93;8.80;;;8.50;99.90;;;;;;5114064;27;20483;-78
2022/04/15 07:35:52;;;;;;;10.80;8.82;;;8.60;99.90;;;;;;5062359;27;20055;-78
2022/04/15 07:38:24;;;;;;;12.07;9.15;;;8.70;99.90;;;;;;5098553;27;20387;-80
2022/04/15 07:40:54;;;;;;;10.23;8.55;;;8.70;99.90;;;;;;5066060;27;20135;-78
2022/04/15 07:43:20;;;;;;;13.07;9.43;;;8.70;99.90;;;;;;5111831;27;20055;-78
2022/04/15 07:45:49;;;;;;;10.63;9.00;;;8.80;99.90;;;;;;5115557;27;20046;-77
2022/04/15 07:48:19;;;;;;;14.77;9.35;;;8.80;99.90;;;;;;5098352;28;20050;-78
2022/04/15 07:50:45;;;;;;;11.63;8.68;;;8.80;99.90;;;;;;5133425;28;20051;-78
2022/04/15 07:53:11;;;;;;;14.80;9.50;;;8.90;99.90;;;;;;5098726;28;20050;-77
2022/04/15 07:55:37;;;;;;;14.85;9.32;;;8.90;99.90;;;;;;5097718;28;20043;-78
2022/04/15 07:58:03;;;;;;;10.07;8.82;;;9.00;99.90;;;;;;5081501;28;20043;-78
2022/04/15 08:00:34;;;;;;;18.23;9.40;;;9.00;99.90;;;;;;5133002;28;20082;-78
2022/04/15 08:03:01;;;;;;;13.13;8.85;;;9.00;99.90;;;;;;5115398;28;20116;-78
2022/04/15 08:05:26;;;;;;;13.55;8.85;;;9.10;99.90;;;;;;5081327;28;20043;-78
2022/04/15 08:07:56;;;;;;;13.73;9.07;;;9.20;99.90;;;;;;5115617;28;20400;-78
2022/04/15 08:10:23;;;;;;;15.40;9.13;;;9.20;99.90;;;;;;5114696;28;20113;-78
2022/04/15 08:12:51;;;;;;;11.43;8.60;;;9.20;99.90;;;;;;5082711;28;20403;-78
2022/04/15 08:15:19;;;;;;;16.13;8.80;;;9.20;99.90;;;;;;5063056;28;20076;-78
2022/04/15 08:17:48;;;;;;;12.77;8.57;;;9.20;99.90;;;;;;5115360;28;20039;-78
2022/04/15 08:20:23;;;;;;;13.00;8.48;;;9.30;99.90;;;;;;5100258;28;20047;-78
2022/04/15 08:22:51;;;;;;;11.90;8.38;;;9.30;99.90;;;;;;5082370;28;20087;-78
2022/04/15 08:25:21;;;;;;;11.48;7.80;;;9.40;99.90;;;;;;5132015;28;20043;-78
2022/04/15 08:27:49;;;;;;;12.95;7.25;;;9.40;99.90;;;;;;5080721;28;20084;-78
2022/04/15 08:30:24;;;;;;;9.45;6.80;;;9.40;99.90;;;;;;5115632;28;20101;-79
2022/04/15 08:32:52;;;;;;;11.18;6.85;;;9.50;99.90;;;;;;5115371;28;20077;-78
2022/04/15 08:35:31;;;;;;;9.45;5.97;;;9.60;99.90;;;;;;5132707;28;20054;-78
2022/04/15 08:38:07;;;;;;;8.43;5.53;;;9.60;99.90;;;;;;5082074;28;20128;-78
2022/04/15 08:40:56;;;;;;;11.10;5.70;;;9.60;99.90;;;;;;5100408;28;20089;-78
2022/04/15 08:43:34;;;;;;;9.43;5.55;;;9.60;99.90;;;;;;5114599;28;20039;-78
2022/04/15 08:46:21;;;;;;;8.82;5.60;;;9.60;99.90;;;;;;5063140;27;20142;-78
2022/04/15 08:48:51;;;;;;;12.65;6.25;;;9.70;99.90;;;;;;5110818;28;20458;-79
2022/04/15 08:51:25;;;;;;;14.13;6.65;;;9.70;99.90;;;;;;5077622;28;20088;-78
2022/04/15 08:54:00;;;;;;;9.20;5.28;;;9.90;99.90;;;;;;5110702;28;20135;-78
2022/04/15 08:56:36;;;;;;;7.57;4.90;;;9.80;99.90;;;;;;5047243;28;20082;-78
2022/04/15 08:59:04;;;;;;;13.68;5.40;;;9.90;99.90;;;;;;5109836;28;20047;-79
2022/04/15 09:01:36;;;;;;;;;;;10.00;99.90;;;;;;5110832;28;20086;-78
2022/04/15 09:04:11;;;;;;;8.05;4.90;;;10.00;99.90;;;;;;5111581;28;19972;-78
2022/04/15 09:06:51;;;;;;;7.85;4.70;;;10.10;99.90;;;;;;5082234;28;20479;-78
2022/04/15 09:09:18;;;;;;;7.75;4.63;;;10.20;99.90;;;;;;5097414;28;20056;-77
2022/04/15 09:11:50;;;;;;;9.32;5.10;;;10.10;99.90;;;;;;5097539;28;20515;-78
2022/04/15 09:14:33;;;;;;;6.90;4.70;;;10.10;99.90;;;;;;5078053;28;20062;-78
2022/04/15 09:17:01;;;;;;;7.88;4.70;;;10.20;99.90;;;;;;5042806;28;20135;-78
2022/04/15 09:19:38;;;;;;;8.88;4.88;;;10.30;99.90;;;;;;5076947;28;20051;-78
2022/04/15 09:22:06;;;;;;;8.43;5.00;;;10.40;99.90;;;;;;5059544;28;20055;-78
2022/04/15 09:24:46;;;;;;;9.27;5.22;;;10.40;99.90;;;;;;5033177;28;20444;-78
2022/04/15 09:27:29;;;;;;;8.20;4.78;;;10.40;99.90;;;;;;5076742;28;20113;-79
2022/04/15 09:30:09;;;;;;;8.43;4.85;;;10.40;99.90;;;;;;5074615;28;20136;-78
2022/04/15 09:32:45;;;;;;;8.38;4.65;;;10.50;99.90;;;;;;5089983;28;20143;-78
2022/04/15 09:35:24;;;;;;;7.03;4.65;;;10.50;99.90;;;;;;5042878;28;20051;-78
2022/04/15 09:38:03;;;;;;;9.35;4.88;;;10.60;99.90;;;;;;5092613;28;20129;-79
2022/04/15 09:40:37;;;;;;;8.18;4.35;;;10.70;99.90;;;;;;5076300;28;20060;-77
2022/04/15 09:43:06;;;;;;;7.13;4.97;;;10.90;99.90;;;;;;5057605;28;20060;-78
2022/04/15 09:45:36;;;;;;;7.40;4.70;;;11.10;99.90;;;;;;5077083;28;20051;-78
2022/04/15 09:48:06;;;;;;;8.32;4.78;;;11.10;99.90;;;;;;5079265;28;20056;-79
2022/04/15 09:50:58;;;;;;;9.73;4.45;;;11.20;99.90;;;;;;5110500;28;20062;-79
2022/04/15 09:53:36;;;;;;;10.00;4.88;;;11.10;99.90;;;;;;5114099;28;20054;-79
2022/04/15 09:56:17;;;;;;;10.85;5.75;;;11.00;99.90;;;;;;5080980;28;20364;-80
2022/04/15 09:58:45;;;;;;;8.95;4.43;;;11.00;99.90;;;;;;5114706;28;20119;-79
2022/04/15 10:01:12;;;;;;;6.55;4.53;;;11.00;99.90;;;;;;5096810;28;20139;-78
2022/04/15 10:03:37;;;;;;;8.95;4.63;;;11.10;99.90;;;;;;5079445;28;20478;-77
2022/04/15 10:06:04;;;;;;;7.95;4.75;;;11.20;99.90;;;;;;5113268;28;20124;-77
2022/04/15 10:08:38;;;;;;;5.90;4.30;;;11.50;99.90;;;;;;5113419;28;20480;-78
2022/04/15 10:11:07;;;;;;;6.93;4.25;;;11.60;99.90;;;;;;5081196;28;20044;-78
2022/04/15 10:13:35;;;;;;;7.10;4.43;;;11.70;99.90;;;;;;5095340;28;20059;-79
2022/04/15 10:16:02;;;;;;;6.68;4.07;;;11.80;99.40;;;;;;5080066;28;20047;-82
2022/04/15 10:18:29;;;;;;;5.95;4.53;;;11.90;99.30;;;;;;5114495;28;20055;-79
2022/04/15 10:20:55;;;;;;;7.82;4.47;;;11.80;99.20;;;;;;5079562;28;20047;-79
2022/04/15 10:23:22;;;;;;;6.93;4.35;;;11.80;98.90;;;;;;5096033;28;20059;-78
2022/04/15 10:25:51;;;;;;;7.95;4.75;;;11.80;98.90;;;;;;5096578;28;20043;-79
2022/04/15 10:28:45;;;;;;;7.38;4.63;;;11.80;98.30;;;;;;5112768;28;20038;-80
2022/04/15 10:31:13;;;;;;;9.00;4.85;;;11.80;98.10;;;;;;5095221;28;20112;-79
2022/04/15 10:33:59;;;;;;;7.57;4.55;;;11.70;98.50;;;;;;5109801;28;20063;-79
2022/04/15 10:36:24;;;;;;;9.63;4.57;;;11.70;98.50;;;;;;5081241;28;20051;-79
2022/04/15 10:39:10;;;;;;;9.80;4.93;;;11.70;98.50;;;;;;5078398;28;20055;-78
2022/04/15 10:42:05;;;;;;;6.35;4.45;;;11.80;96.60;;;;;;5112935;28;20046;-78
2022/04/15 10:44:33;;;;;;;6.32;4.30;;;11.80;97.50;;;;;;5114182;27;20044;-78
2022/04/15 10:47:14;;;;;;;7.45;4.50;;;11.80;97.50;;;;;;5112821;27;20108;-79
2022/04/15 10:50:17;;;;;;;9.57;5.07;;;11.90;97.10;;;;;;5091195;28;20139;-78
2022/04/15 10:52:46;;;;;;;7.07;5.30;;;12.00;96.70;;;;;;5057890;28;20082;-79
2022/04/15 10:55:24;;;;;;;;;;;11.90;97.70;;;;;;5077662;28;20524;-79
2022/04/15 10:57:51;;;;;;;6.90;5.35;;;11.80;96.10;;;;;;5091065;28;20323;-79
2022/04/15 11:03:35;;;;;;;9.35;6.05;;;11.80;98.50;;;;;;5092858;28;20055;-78
2022/04/15 11:06:35;;;;;;;6.20;4.50;;;11.80;98.80;;;;;;5075500;28;20052;-79
2022/04/15 11:09:19;;;;;;;8.52;4.68;;;11.80;98.00;;;;;;5092176;28;20055;-79
2022/04/15 11:11:52;;;;;;;8.52;5.38;;;11.80;97.40;;;;;;5090885;28;20056;-79
2022/04/15 11:14:34;;;;;;;7.43;5.32;;;11.80;97.50;;;;;;5091363;28;20092;-79
2022/04/15 11:17:14;;;;;;;7.15;4.93;;;11.80;96.10;;;;;;5076054;28;20044;-79
2022/04/15 11:20:05;;;;;;;7.13;5.38;;;11.70;97.60;;;;;;5077554;28;20404;-79
2022/04/15 11:22:49;;;;;;;8.35;5.10;;;11.80;97.90;;;;;;5091058;28;20048;-79
2022/04/15 11:25:24;;;;;;;8.10;5.60;;;11.80;98.10;;;;;;5087826;28;20101;-78
2022/04/15 11:27:59;;;;;;;7.32;5.35;;;11.80;97.60;;;;;;5090670;28;20064;-79
2022/04/15 11:30:26;;;;;;;10.18;5.72;;;11.80;97.80;;;;;;5091753;28;20144;-80
2022/04/15 11:33:00;;;;;;;10.45;5.93;;;11.80;97.50;;;;;;5075634;28;20044;-79
2022/04/15 11:35:35;;;;;;;8.27;4.90;;;11.80;97.50;;;;;;5091007;28;20062;-79
2022/04/15 11:38:18;;;;;;;8.77;5.55;;;11.80;97.60;;;;;;5048841;28;20063;-79
2022/04/15 11:40:46;;;;;;;8.35;5.65;;;11.80;97.70;;;;;;5090178;28;20396;-80
2022/04/15 11:43:28;;;;;;;7.78;5.53;;;11.80;97.50;;;;;;5076621;28;20131;-78
2022/04/15 11:45:57;;;;;;;8.82;6.13;;;11.80;97.20;;;;;;5088582;28;20056;-77
2022/04/15 11:48:30;;;;;;;9.55;5.97;;;11.80;97.40;;;;;;5085505;28;20052;-78
2022/04/15 11:51:06;;;;;;;7.20;5.40;;;11.80;97.30;;;;;;5110367;28;20098;-78
2022/04/15 11:53:47;;;;;;;7.80;5.55;;;11.70;97.50;;;;;;5110946;28;20063;-77
2022/04/15 11:56:15;;;;;;;7.93;5.97;;;11.80;97.30;;;;;;5105082;28;20051;-77
2022/04/15 11:58:45;;;;;;;7.65;5.05;;;11.80;97.30;;;;;;5111696;28;20047;-79
2022/04/15 12:01:12;;;;;;;10.45;5.35;;;11.80;97.30;;;;;;5095772;28;20044;-78
2022/04/15 12:03:43;;;;;;;8.10;5.68;;;11.70;96.50;;;;;;5095067;28;20043;-78
2022/04/15 12:06:33;;;;;;;;;;;11.60;97.10;;;;;;5112874;28;20048;-80
2022/04/15 12:09:23;;;;;;;9.32;5.93;;;11.50;96.90;;;;;;5112135;28;19926;-80
2022/04/15 12:12:21;;;;;;;8.85;6.03;;;11.50;98.10;;;;;;5111201;28;20054;-80
2022/04/15 12:15:12;;;;;;;11.93;5.85;;;11.40;97.90;;;;;;5109963;28;20117;-80
2022/04/15 12:17:42;;;;;;;9.02;6.13;;;11.40;98.20;;;;;;5060542;28;20492;-80
2022/04/15 12:20:23;;;;;;;8.73;5.85;;;11.30;98.30;;;;;;5095674;28;20368;-79
2022/04/15 12:23:15;;;;;;;6.72;5.35;;;11.30;98.30;;;;;;5101790;28;20059;-79
2022/04/15 12:31:39;;;;;;;6.90;5.68;;;11.30;98.30;;;;;;5101563;28;20133;-80
2022/04/15 12:34:11;;;;;;;9.63;6.15;;;11.30;98.50;;;;;;5115156;28;20039;-80
2022/04/15 12:36:44;;;;;;;9.40;5.68;;;11.30;98.40;;;;;;5098675;28;20480;-80
2022/04/15 12:39:16;;;;;;;7.45;5.60;;;11.30;98.60;;;;;;5114746;28;20118;-80
2022/04/15 12:41:45;;;;;;;7.45;5.50;;;11.40;98.20;;;;;;5115652;28;20112;-80
2022/04/15 12:44:15;;;;;;;9.88;5.72;;;11.30;98.20;;;;;;5115044;28;20086;-80
2022/04/15 12:46:54;;;;;;;10.10;6.30;;;11.30;97.80;;;;;;5099284;28;20046;-80
2022/04/15 12:49:34;;;;;;;6.13;5.32;;;11.30;97.90;;;;;;5065288;28;20444;-80
2022/04/15 12:52:33;;;;;;;7.68;5.95;;;11.20;98.00;;;;;;5116033;28;20088;-80
2022/04/15 12:55:36;;;;;;;7.93;5.28;;;11.20;98.10;;;;;;5082038;28;20091;-80
2022/04/15 12:58:41;;;;;;;9.40;5.78;;;11.20;98.20;;;;;;5079649;28;20185;-80
2022/04/15 13:01:17;;;;;;;8.52;5.18;;;11.30;98.20;;;;;;5115865;28;20062;-80
2022/04/15 13:03:54;;;;;;;8.80;5.70;;;11.20;98.20;;;;;;5113900;28;20052;-80
2022/04/15 13:06:38;;;;;;;8.18;5.75;;;11.30;98.40;;;;;;5100402;28;20462;-80
2022/04/15 13:09:23;;;;;;;12.27;5.90;;;11.20;98.30;;;;;;5114531;28;20059;-80
2022/04/15 13:12:11;;;;;;;9.00;6.35;;;11.20;98.30;;;;;;5111868;28;20043;-81
2022/04/15 13:14:54;;;;;;;10.63;6.55;;;11.10;98.50;;;;;;5061296;28;20143;-80
2022/04/15 13:17:34;;;;;;;9.80;5.97;;;11.10;98.60;;;;;;5077365;28;20064;-80
2022/04/15 13:20:36;;;;;;;10.88;6.57;;;11.10;98.10;;;;;;5073770;28;20063;-81
2022/04/15 13:23:10;;;;;;;9.43;5.80;;;11.10;98.60;;;;;;5052960;28;20048;-80
2022/04/15 13:25:54;;;;;;;9.35;6.13;;;11.00;99.30;;;;;;5077344;28;20067;-80
2022/04/15 13:28:28;;;;;;;8.15;5.88;;;11.00;99.50;;;;;;5091795;28;20094;-80
2022/04/15 13:30:57;;;;;;;10.35;5.70;;;11.00;99.30;;;;;;5089164;28;20052;-80
2022/04/15 13:33:45;;;;;;;6.78;5.25;;;11.00;99.00;;;;;;5025347;28;20059;-80
2022/04/15 13:36:27;;;;;;;7.60;4.95;;;11.00;98.60;;;;;;5091545;28;20086;-80
2022/04/15 13:39:11;;;;;;;10.40;5.63;;;11.00;99.00;;;;;;5075856;28;20131;-80
2022/04/15 13:41:43;;;;;;;17.05;5.47;;;11.10;99.00;;;;;;5091193;28;20056;-80
2022/04/15 13:44:55;;;;;;;10.68;5.65;;;11.00;99.20;;;;;;5095198;28;20164;-80
2022/04/15 13:47:33;;;;;;;11.30;5.53;;;11.10;99.40;;;;;;5115254;27;20044;-81